sensor_id;sensor_type;location;lat;lon;timestamp;P1;durP1;ratioP1;P2;durP2;ratioP2
31674;SDS011;18276;45.520;11.018;2023-05-07T05:05:39;42.70;;;28.42;;
31674;SDS011;18276;45.520;11.018;2023-05-07T05:08:06;41.65;;;27.85;;
31674;SDS011;18276;45.520;11.018;2023-05-07T05:10:36;38.50;;;25.88;;
31674;SDS011;18276;45.520;11.018;2023-05-07T05:13:04;41.47;;;28.50;;
31674;SDS011;18276;45.520;11.018;2023-05-07T05:15:32;40.47;;;27.98;;
31674;SDS011;18276;45.520;11.018;2023-05-07T05:18:00;44.10;;;30.55;;
31674;SDS011;18276;45.520;11.018;2023-05-07T05:20:29;51.42;;;32.75;;
31674;SDS011;18276;45.520;11.018;2023-05-07T05:22:56;46.45;;;30.25;;
31674;SDS011;18276;45.520;11.018;2023-05-07T05:25:23;47.55;;;30.33;;
31674;SDS011;18276;45.520;11.018;2023-05-07T05:27:51;46.90;;;29.02;;
31674;SDS011;18276;45.520;11.018;2023-05-07T05:30:18;44.92;;;29.70;;
31674;SDS011;18276;45.520;11.018;2023-05-07T05:35:14;42.55;;;26.67;;
31674;SDS011;18276;45.520;11.018;2023-05-07T05:37:42;44.47;;;28.25;;
31674;SDS011;18276;45.520;11.018;2023-05-07T05:59:50;39.50;;;27.08;;
31674;SDS011;18276;45.520;11.018;2023-05-07T06:02:18;40.72;;;27.23;;
31674;SDS011;18276;45.520;11.018;2023-05-07T06:04:45;37.17;;;27.08;;
31674;SDS011;18276;45.520;11.018;2023-05-07T06:07:16;34.88;;;24.25;;
31674;SDS011;18276;45.520;11.018;2023-05-07T06:09:43;36.65;;;25.88;;
31674;SDS011;18276;45.520;11.018;2023-05-07T06:12:11;33.70;;;24.33;;
31674;SDS011;18276;45.520;11.018;2023-05-07T06:14:42;31.05;;;22.45;;
31674;SDS011;18276;45.520;11.018;2023-05-07T06:22:05;34.20;;;22.23;;
31674;SDS011;18276;45.520;11.018;2023-05-07T06:24:33;29.73;;;21.50;;
31674;SDS011;18276;45.520;11.018;2023-05-07T22:20:10;10.52;;;3.10;;
31674;SDS011;18276;45.520;11.018;2023-05-07T22:22:47;5.40;;;3.03;;
31674;SDS011;18276;45.520;11.018;2023-05-07T22:25:18;8.77;;;3.58;;
31674;SDS011;18276;45.520;11.018;2023-05-07T22:27:46;8.88;;;4.15;;
31674;SDS011;18276;45.520;11.018;2023-05-07T22:30:13;4.10;;;3.20;;
31674;SDS011;18276;45.520;11.018;2023-05-07T22:32:41;10.10;;;3.70;;
31674;SDS011;18276;45.520;11.018;2023-05-07T22:35:09;7.40;;;3.28;;
31674;SDS011;18276;45.520;11.018;2023-05-07T22:37:36;10.20;;;2.92;;
31674;SDS011;18276;45.520;11.018;2023-05-07T22:40:03;8.90;;;3.65;;
31674;SDS011;18276;45.520;11.018;2023-05-07T22:42:31;9.55;;;3.53;;
31674;SDS011;18276;45.520;11.018;2023-05-07T22:44:58;5.25;;;3.65;;
31674;SDS011;18276;45.520;11.018;2023-05-07T22:47:27;8.23;;;3.47;;
31674;SDS011;18276;45.520;11.018;2023-05-07T22:49:56;9.18;;;4.00;;
31674;SDS011;18276;45.520;11.018;2023-05-07T22:52:23;8.75;;;4.15;;
31674;SDS011;18276;45.520;11.018;2023-05-07T22:54:50;10.13;;;3.92;;
31674;SDS011;18276;45.520;11.018;2023-05-07T22:57:17;11.60;;;3.53;;
31674;SDS011;18276;45.520;11.018;2023-05-07T22:59:44;9.38;;;4.30;;
31674;SDS011;18276;45.520;11.018;2023-05-07T23:02:11;5.00;;;3.40;;
31674;SDS011;18276;45.520;11.018;2023-05-07T23:04:38;7.43;;;3.80;;
31674;SDS011;18276;45.520;11.018;2023-05-07T23:07:05;9.30;;;3.90;;
31674;SDS011;18276;45.520;11.018;2023-05-07T23:09:32;5.68;;;3.33;;
31674;SDS011;18276;45.520;11.018;2023-05-07T23:11:59;4.40;;;3.28;;
31674;SDS011;18276;45.520;11.018;2023-05-07T23:14:26;6.35;;;3.40;;
31674;SDS011;18276;45.520;11.018;2023-05-07T23:16:53;8.45;;;3.80;;
31674;SDS011;18276;45.520;11.018;2023-05-07T23:19:20;4.30;;;3.60;;
31674;SDS011;18276;45.520;11.018;2023-05-07T23:21:47;7.50;;;4.18;;
31674;SDS011;18276;45.520;11.018;2023-05-07T23:24:14;5.28;;;3.80;;
31674;SDS011;18276;45.520;11.018;2023-05-07T23:26:41;6.53;;;3.50;;
31674;SDS011;18276;45.520;11.018;2023-05-07T23:29:08;9.18;;;3.97;;
31674;SDS011;18276;45.520;11.018;2023-05-07T23:31:35;5.70;;;3.33;;
31674;SDS011;18276;45.520;11.018;2023-05-07T23:34:02;4.90;;;3.10;;
31674;SDS011;18276;45.520;11.018;2023-05-07T23:36:30;5.05;;;2.92;;
31674;SDS011;18276;45.520;11.018;2023-05-07T23:38:57;3.63;;;2.95;;
31674;SDS011;18276;45.520;11.018;2023-05-07T23:41:25;5.88;;;3.00;;
31674;SDS011;18276;45.520;11.018;2023-05-07T23:43:51;4.43;;;3.17;;
31674;SDS011;18276;45.520;11.018;2023-05-07T23:46:18;5.25;;;3.47;;
31674;SDS011;18276;45.520;11.018;2023-05-07T23:48:46;5.78;;;3.45;;
31674;SDS011;18276;45.520;11.018;2023-05-07T23:51:12;8.52;;;3.83;;
31674;SDS011;18276;45.520;11.018;2023-05-07T23:53:39;7.32;;;3.88;;
31674;SDS011;18276;45.520;11.018;2023-05-07T23:56:07;4.78;;;3.60;;
31674;SDS011;18276;45.520;11.018;2023-05-07T23:58:34;6.22;;;3.78;;
